sensor_id;sensor_type;location;lat;lon;timestamp;temperature;humidity
75022;SHT31;63583;49.976;20.182;2023-05-10T00:01:38;6.79;71.29
75022;SHT31;63583;49.976;20.182;2023-05-10T00:04:03;6.74;71.50
75022;SHT31;63583;49.976;20.182;2023-05-10T00:06:29;6.74;71.77
75022;SHT31;63583;49.976;20.182;2023-05-10T00:08:55;6.64;72.28
75022;SHT31;63583;49.976;20.182;2023-05-10T00:11:21;6.51;73.24
75022;SHT31;63583;49.976;20.182;2023-05-10T00:13:46;6.29;73.29
75022;SHT31;63583;49.976;20.182;2023-05-10T00:16:12;6.27;73.50
75022;SHT31;63583;49.976;20.182;2023-05-10T00:18:39;6.41;73.03
75022;SHT31;63583;49.976;20.182;2023-05-10T00:21:05;6.40;73.16
75022;SHT31;63583;49.976;20.182;2023-05-10T00:23:31;6.29;73.50
75022;SHT31;63583;49.976;20.182;2023-05-10T00:25:57;6.26;73.67
75022;SHT31;63583;49.976;20.182;2023-05-10T00:28:23;6.17;74.05
75022;SHT31;63583;49.976;20.182;2023-05-10T00:30:48;6.22;73.78
75022;SHT31;63583;49.976;20.182;2023-05-10T00:33:14;6.19;73.96
75022;SHT31;63583;49.976;20.182;2023-05-10T00:35:39;6.16;74.17
75022;SHT31;63583;49.976;20.182;2023-05-10T00:38:05;6.10;74.69
75022;SHT31;63583;49.976;20.182;2023-05-10T00:40:31;6.05;75.03
75022;SHT31;63583;49.976;20.182;2023-05-10T00:42:57;6.10;75.01
75022;SHT31;63583;49.976;20.182;2023-05-10T00:45:24;6.12;74.76
75022;SHT31;63583;49.976;20.182;2023-05-10T00:47:50;6.13;74.69
75022;SHT31;63583;49.976;20.182;2023-05-10T00:50:21;6.27;74.39
75022;SHT31;63583;49.976;20.182;2023-05-10T00:52:47;6.22;74.54
75022;SHT31;63583;49.976;20.182;2023-05-10T00:55:13;6.14;74.79
75022;SHT31;63583;49.976;20.182;2023-05-10T00:57:39;6.12;75.11
75022;SHT31;63583;49.976;20.182;2023-05-10T01:00:05;6.16;74.62
75022;SHT31;63583;49.976;20.182;2023-05-10T01:02:32;6.12;75.13
75022;SHT31;63583;49.976;20.182;2023-05-10T01:04:59;6.14;74.83
75022;SHT31;63583;49.976;20.182;2023-05-10T01:07:24;6.12;74.97
75022;SHT31;63583;49.976;20.182;2023-05-10T01:09:50;6.13;74.83
75022;SHT31;63583;49.976;20.182;2023-05-10T01:12:16;6.13;74.76
75022;SHT31;63583;49.976;20.182;2023-05-10T01:14:42;6.22;74.57
75022;SHT31;63583;49.976;20.182;2023-05-10T01:17:08;6.06;74.95
75022;SHT31;63583;49.976;20.182;2023-05-10T01:19:35;6.09;75.22
75022;SHT31;63583;49.976;20.182;2023-05-10T01:31:06;6.23;74.41
75022;SHT31;63583;49.976;20.182;2023-05-10T01:36:30;6.10;74.93
75022;SHT31;63583;49.976;20.182;2023-05-10T01:39:17;6.09;74.91
75022;SHT31;63583;49.976;20.182;2023-05-10T01:44:35;6.22;74.42
75022;SHT31;63583;49.976;20.182;2023-05-10T01:47:17;6.12;74.63
75022;SHT31;63583;49.976;20.182;2023-05-10T01:49:50;6.03;75.06
75022;SHT31;63583;49.976;20.182;2023-05-10T01:52:19;6.10;75.16
75022;SHT31;63583;49.976;20.182;2023-05-10T01:54:53;5.92;75.59
75022;SHT31;63583;49.976;20.182;2023-05-10T01:57:22;5.82;76.30
75022;SHT31;63583;49.976;20.182;2023-05-10T01:59:52;5.75;76.23
75022;SHT31;63583;49.976;20.182;2023-05-10T02:02:20;5.82;75.71
75022;SHT31;63583;49.976;20.182;2023-05-10T02:04:46;5.79;75.99
75022;SHT31;63583;49.976;20.182;2023-05-10T02:07:14;5.71;76.15
75022;SHT31;63583;49.976;20.182;2023-05-10T02:09:40;5.79;75.97
75022;SHT31;63583;49.976;20.182;2023-05-10T02:12:07;5.88;75.54
75022;SHT31;63583;49.976;20.182;2023-05-10T02:14:36;5.81;75.88
75022;SHT31;63583;49.976;20.182;2023-05-10T02:17:04;5.82;76.00
75022;SHT31;63583;49.976;20.182;2023-05-10T02:19:32;5.88;75.65
75022;SHT31;63583;49.976;20.182;2023-05-10T02:21:59;5.83;75.68
75022;SHT31;63583;49.976;20.182;2023-05-10T02:24:26;5.76;75.87
75022;SHT31;63583;49.976;20.182;2023-05-10T02:26:54;5.81;75.71
75022;SHT31;63583;49.976;20.182;2023-05-10T02:29:23;5.82;75.73
75022;SHT31;63583;49.976;20.182;2023-05-10T02:31:51;5.78;75.58
75022;SHT31;63583;49.976;20.182;2023-05-10T02:34:18;5.78;75.58
75022;SHT31;63583;49.976;20.182;2023-05-10T02:36:44;5.78;75.44
75022;SHT31;63583;49.976;20.182;2023-05-10T02:39:11;5.81;74.98
75022;SHT31;63583;49.976;20.182;2023-05-10T02:41:40;5.85;74.96
75022;SHT31;63583;49.976;20.182;2023-05-10T02:44:07;5.86;75.03
75022;SHT31;63583;49.976;20.182;2023-05-10T02:46:33;5.86;75.13
75022;SHT31;63583;49.976;20.182;2023-05-10T02:49:00;5.93;74.99
75022;SHT31;63583;49.976;20.182;2023-05-10T02:51:29;5.99;74.74
75022;SHT31;63583;49.976;20.182;2023-05-10T02:53:57;5.99;74.65
75022;SHT31;63583;49.976;20.182;2023-05-10T02:56:25;6.05;74.25
75022;SHT31;63583;49.976;20.182;2023-05-10T02:58:53;6.14;74.14
75022;SHT31;63583;49.976;20.182;2023-05-10T03:01:20;6.19;74.32
75022;SHT31;63583;49.976;20.182;2023-05-10T03:03:45;6.19;74.19
75022;SHT31;63583;49.976;20.182;2023-05-10T03:06:11;6.27;73.83
75022;SHT31;63583;49.976;20.182;2023-05-10T03:08:37;6.40;73.49
75022;SHT31;63583;49.976;20.182;2023-05-10T03:11:31;6.44;73.53
75022;SHT31;63583;49.976;20.182;2023-05-10T03:14:21;6.44;73.29
75022;SHT31;63583;49.976;20.182;2023-05-10T03:19:26;6.63;73.32
75022;SHT31;63583;49.976;20.182;2023-05-10T03:21:53;6.71;73.36
75022;SHT31;63583;49.976;20.182;2023-05-10T03:24:23;6.85;72.69
75022;SHT31;63583;49.976;20.182;2023-05-10T03:26:55;6.96;72.20
75022;SHT31;63583;49.976;20.182;2023-05-10T03:29:22;7.00;72.29
75022;SHT31;63583;49.976;20.182;2023-05-10T03:31:49;7.20;71.71
75022;SHT31;63583;49.976;20.182;2023-05-10T03:34:15;7.30;71.22
75022;SHT31;63583;49.976;20.182;2023-05-10T03:36:40;7.36;71.09
75022;SHT31;63583;49.976;20.182;2023-05-10T03:39:06;7.43;70.88
75022;SHT31;63583;49.976;20.182;2023-05-10T03:41:32;7.57;70.41
75022;SHT31;63583;49.976;20.182;2023-05-10T03:43:57;7.64;70.11
75022;SHT31;63583;49.976;20.182;2023-05-10T03:46:23;7.71;69.99
75022;SHT31;63583;49.976;20.182;2023-05-10T03:48:48;7.81;70.03
75022;SHT31;63583;49.976;20.182;2023-05-10T03:51:14;7.91;69.87
75022;SHT31;63583;49.976;20.182;2023-05-10T03:53:39;7.98;69.51
75022;SHT31;63583;49.976;20.182;2023-05-10T03:56:05;8.05;69.22
75022;SHT31;63583;49.976;20.182;2023-05-10T03:58:31;8.15;68.80
75022;SHT31;63583;49.976;20.182;2023-05-10T04:00:56;8.26;68.47
75022;SHT31;63583;49.976;20.182;2023-05-10T04:03:22;8.17;69.00
75022;SHT31;63583;49.976;20.182;2023-05-10T04:05:48;8.43;68.65
75022;SHT31;63583;49.976;20.182;2023-05-10T04:08:14;8.63;68.03
75022;SHT31;63583;49.976;20.182;2023-05-10T04:10:41;8.84;66.98
75022;SHT31;63583;49.976;20.182;2023-05-10T04:13:07;8.78;67.64
75022;SHT31;63583;49.976;20.182;2023-05-10T04:15:33;8.95;67.21
75022;SHT31;63583;49.976;20.182;2023-05-10T04:17:58;9.15;66.46
75022;SHT31;63583;49.976;20.182;2023-05-10T04:20:24;9.05;67.13
75022;SHT31;63583;49.976;20.182;2023-05-10T04:22:49;9.36;66.74
75022;SHT31;63583;49.976;20.182;2023-05-10T04:25:15;9.53;65.80
75022;SHT31;63583;49.976;20.182;2023-05-10T04:27:40;9.56;65.93
75022;SHT31;63583;49.976;20.182;2023-05-10T04:30:07;9.69;65.29
75022;SHT31;63583;49.976;20.182;2023-05-10T04:32:33;9.90;65.37
75022;SHT31;63583;49.976;20.182;2023-05-10T04:34:58;9.99;64.60
75022;SHT31;63583;49.976;20.182;2023-05-10T04:37:24;10.09;65.74
75022;SHT31;63583;49.976;20.182;2023-05-10T04:39:49;10.19;63.90
75022;SHT31;63583;49.976;20.182;2023-05-10T04:42:15;10.29;64.18
75022;SHT31;63583;49.976;20.182;2023-05-10T04:44:41;10.63;63.05
75022;SHT31;63583;49.976;20.182;2023-05-10T04:47:07;10.79;63.59
75022;SHT31;63583;49.976;20.182;2023-05-10T04:49:32;11.03;63.06
75022;SHT31;63583;49.976;20.182;2023-05-10T04:51:58;11.20;64.11
75022;SHT31;63583;49.976;20.182;2023-05-10T04:54:23;11.10;64.75
75022;SHT31;63583;49.976;20.182;2023-05-10T04:56:49;11.10;65.84
75022;SHT31;63583;49.976;20.182;2023-05-10T04:59:15;11.41;64.32
75022;SHT31;63583;49.976;20.182;2023-05-10T05:01:41;11.22;65.22
75022;SHT31;63583;49.976;20.182;2023-05-10T05:04:06;11.27;65.81
75022;SHT31;63583;49.976;20.182;2023-05-10T05:06:32;11.36;64.47
75022;SHT31;63583;49.976;20.182;2023-05-10T05:08:57;11.41;64.13
75022;SHT31;63583;49.976;20.182;2023-05-10T05:11:23;11.51;63.44
75022;SHT31;63583;49.976;20.182;2023-05-10T05:13:49;11.56;63.86
75022;SHT31;63583;49.976;20.182;2023-05-10T05:16:14;11.62;63.38
75022;SHT31;63583;49.976;20.182;2023-05-10T05:18:40;11.83;63.31
75022;SHT31;63583;49.976;20.182;2023-05-10T05:21:16;12.01;63.20
75022;SHT31;63583;49.976;20.182;2023-05-10T05:23:42;12.10;62.45
75022;SHT31;63583;49.976;20.182;2023-05-10T05:26:07;11.93;64.03
75022;SHT31;63583;49.976;20.182;2023-05-10T05:28:33;12.03;64.11
75022;SHT31;63583;49.976;20.182;2023-05-10T05:31:06;12.12;62.75
75022;SHT31;63583;49.976;20.182;2023-05-10T05:33:33;12.41;62.01
75022;SHT31;63583;49.976;20.182;2023-05-10T05:36:02;12.24;63.63
75022;SHT31;63583;49.976;20.182;2023-05-10T05:38:28;12.44;63.17
75022;SHT31;63583;49.976;20.182;2023-05-10T05:40:54;12.73;62.74
75022;SHT31;63583;49.976;20.182;2023-05-10T05:43:19;12.66;62.55
75022;SHT31;63583;49.976;20.182;2023-05-10T05:45:45;12.75;62.46
75022;SHT31;63583;49.976;20.182;2023-05-10T05:48:10;12.25;64.17
75022;SHT31;63583;49.976;20.182;2023-05-10T05:50:36;12.59;65.12
75022;SHT31;63583;49.976;20.182;2023-05-10T05:53:02;12.49;63.71
75022;SHT31;63583;49.976;20.182;2023-05-10T05:55:28;12.56;64.39
75022;SHT31;63583;49.976;20.182;2023-05-10T05:57:55;12.78;64.59
75022;SHT31;63583;49.976;20.182;2023-05-10T06:00:20;12.51;67.62
75022;SHT31;63583;49.976;20.182;2023-05-10T06:02:47;12.58;65.52
75022;SHT31;63583;49.976;20.182;2023-05-10T06:05:13;12.78;65.61
75022;SHT31;63583;49.976;20.182;2023-05-10T06:07:39;12.76;65.95
75022;SHT31;63583;49.976;20.182;2023-05-10T06:10:08;12.76;65.83
75022;SHT31;63583;49.976;20.182;2023-05-10T06:12:34;12.71;64.41
75022;SHT31;63583;49.976;20.182;2023-05-10T06:15:00;12.55;63.84
75022;SHT31;63583;49.976;20.182;2023-05-10T06:17:26;12.33;65.15
75022;SHT31;63583;49.976;20.182;2023-05-10T06:19:51;12.62;64.67
75022;SHT31;63583;49.976;20.182;2023-05-10T06:22:17;12.73;63.27
75022;SHT31;63583;49.976;20.182;2023-05-10T06:24:43;12.76;63.72
75022;SHT31;63583;49.976;20.182;2023-05-10T06:27:09;12.93;62.79
75022;SHT31;63583;49.976;20.182;2023-05-10T06:29:34;12.42;63.09
75022;SHT31;63583;49.976;20.182;2023-05-10T06:32:00;12.41;62.95
75022;SHT31;63583;49.976;20.182;2023-05-10T06:34:25;12.93;62.32
75022;SHT31;63583;49.976;20.182;2023-05-10T06:36:51;13.31;63.69
75022;SHT31;63583;49.976;20.182;2023-05-10T06:39:17;13.43;59.08
75022;SHT31;63583;49.976;20.182;2023-05-10T06:41:43;13.75;57.68
75022;SHT31;63583;49.976;20.182;2023-05-10T06:44:09;14.01;59.05
75022;SHT31;63583;49.976;20.182;2023-05-10T06:46:36;14.02;55.63
75022;SHT31;63583;49.976;20.182;2023-05-10T06:49:01;14.34;58.10
75022;SHT31;63583;49.976;20.182;2023-05-10T06:51:27;14.48;57.49
75022;SHT31;63583;49.976;20.182;2023-05-10T06:53:53;14.75;59.08
75022;SHT31;63583;49.976;20.182;2023-05-10T06:56:18;14.84;56.06
75022;SHT31;63583;49.976;20.182;2023-05-10T06:58:49;14.78;58.54
75022;SHT31;63583;49.976;20.182;2023-05-10T07:01:15;14.84;54.96
75022;SHT31;63583;49.976;20.182;2023-05-10T07:03:40;15.12;56.31
75022;SHT31;63583;49.976;20.182;2023-05-10T07:06:06;14.98;55.18
75022;SHT31;63583;49.976;20.182;2023-05-10T07:08:33;14.95;55.43
75022;SHT31;63583;49.976;20.182;2023-05-10T07:11:03;15.05;55.66
75022;SHT31;63583;49.976;20.182;2023-05-10T07:13:32;15.26;53.14
75022;SHT31;63583;49.976;20.182;2023-05-10T07:15:58;15.49;53.06
75022;SHT31;63583;49.976;20.182;2023-05-10T07:18:25;15.20;51.51
75022;SHT31;63583;49.976;20.182;2023-05-10T07:20:51;15.70;50.97
75022;SHT31;63583;49.976;20.182;2023-05-10T07:23:16;15.80;53.18
75022;SHT31;63583;49.976;20.182;2023-05-10T07:25:47;15.95;50.52
75022;SHT31;63583;49.976;20.182;2023-05-10T07:28:14;15.74;53.69
75022;SHT31;63583;49.976;20.182;2023-05-10T07:30:40;15.84;53.17
75022;SHT31;63583;49.976;20.182;2023-05-10T07:33:07;15.64;52.65
75022;SHT31;63583;49.976;20.182;2023-05-10T07:35:33;15.33;50.83
75022;SHT31;63583;49.976;20.182;2023-05-10T07:37:59;15.53;52.95
75022;SHT31;63583;49.976;20.182;2023-05-10T07:40:25;15.59;51.24
75022;SHT31;63583;49.976;20.182;2023-05-10T07:42:51;15.71;51.09
75022;SHT31;63583;49.976;20.182;2023-05-10T07:45:16;16.08;53.02
75022;SHT31;63583;49.976;20.182;2023-05-10T07:47:42;15.98;53.76
75022;SHT31;63583;49.976;20.182;2023-05-10T07:50:08;15.76;50.90
75022;SHT31;63583;49.976;20.182;2023-05-10T07:52:33;15.74;51.13
75022;SHT31;63583;49.976;20.182;2023-05-10T07:54:59;15.57;49.52
75022;SHT31;63583;49.976;20.182;2023-05-10T07:57:25;15.94;53.07
75022;SHT31;63583;49.976;20.182;2023-05-10T07:59:50;15.97;50.01
75022;SHT31;63583;49.976;20.182;2023-05-10T08:02:16;16.28;51.15
75022;SHT31;63583;49.976;20.182;2023-05-10T08:04:42;16.02;50.03
75022;SHT31;63583;49.976;20.182;2023-05-10T08:07:07;16.04;50.22
75022;SHT31;63583;49.976;20.182;2023-05-10T08:09:33;15.95;50.25
75022;SHT31;63583;49.976;20.182;2023-05-10T08:11:58;16.16;50.47
75022;SHT31;63583;49.976;20.182;2023-05-10T08:14:26;15.98;49.09
75022;SHT31;63583;49.976;20.182;2023-05-10T08:16:52;16.21;50.25
75022;SHT31;63583;49.976;20.182;2023-05-10T08:19:18;15.93;49.65
75022;SHT31;63583;49.976;20.182;2023-05-10T08:21:45;16.12;48.42
75022;SHT31;63583;49.976;20.182;2023-05-10T08:24:11;16.14;48.15
75022;SHT31;63583;49.976;20.182;2023-05-10T08:26:36;16.09;47.51
75022;SHT31;63583;49.976;20.182;2023-05-10T08:29:02;16.02;47.11
75022;SHT31;63583;49.976;20.182;2023-05-10T08:31:28;16.32;49.24
75022;SHT31;63583;49.976;20.182;2023-05-10T08:33:54;16.59;49.96
75022;SHT31;63583;49.976;20.182;2023-05-10T08:36:19;16.48;48.78
75022;SHT31;63583;49.976;20.182;2023-05-10T08:38:50;16.59;48.12
75022;SHT31;63583;49.976;20.182;2023-05-10T08:41:16;16.66;47.21
75022;SHT31;63583;49.976;20.182;2023-05-10T08:43:43;16.81;47.05
75022;SHT31;63583;49.976;20.182;2023-05-10T08:46:15;16.83;49.50
75022;SHT31;63583;49.976;20.182;2023-05-10T08:48:43;16.62;48.10
75022;SHT31;63583;49.976;20.182;2023-05-10T08:51:09;16.70;47.49
75022;SHT31;63583;49.976;20.182;2023-05-10T08:53:37;16.57;47.45
75022;SHT31;63583;49.976;20.182;2023-05-10T08:56:03;16.62;47.30
75022;SHT31;63583;49.976;20.182;2023-05-10T08:58:29;16.43;48.17
75022;SHT31;63583;49.976;20.182;2023-05-10T09:00:55;16.83;49.38
75022;SHT31;63583;49.976;20.182;2023-05-10T09:03:22;16.73;45.61
75022;SHT31;63583;49.976;20.182;2023-05-10T09:05:48;16.80;47.15
75022;SHT31;63583;49.976;20.182;2023-05-10T09:08:15;16.93;45.79
75022;SHT31;63583;49.976;20.182;2023-05-10T09:10:44;16.73;44.80
75022;SHT31;63583;49.976;20.182;2023-05-10T09:13:13;16.85;47.72
75022;SHT31;63583;49.976;20.182;2023-05-10T09:15:39;17.12;47.17
75022;SHT31;63583;49.976;20.182;2023-05-10T09:18:05;17.25;46.71
75022;SHT31;63583;49.976;20.182;2023-05-10T09:20:31;17.34;44.24
75022;SHT31;63583;49.976;20.182;2023-05-10T09:22:56;17.08;45.61
75022;SHT31;63583;49.976;20.182;2023-05-10T09:25:22;17.22;46.10
75022;SHT31;63583;49.976;20.182;2023-05-10T09:27:48;17.04;44.90
75022;SHT31;63583;49.976;20.182;2023-05-10T09:30:24;17.11;47.50
75022;SHT31;63583;49.976;20.182;2023-05-10T09:32:50;16.97;44.80
75022;SHT31;63583;49.976;20.182;2023-05-10T09:35:21;16.93;45.17
75022;SHT31;63583;49.976;20.182;2023-05-10T09:37:49;17.10;45.21
75022;SHT31;63583;49.976;20.182;2023-05-10T09:40:16;17.10;42.67
75022;SHT31;63583;49.976;20.182;2023-05-10T09:42:50;17.21;45.39
75022;SHT31;63583;49.976;20.182;2023-05-10T09:45:16;16.97;44.39
75022;SHT31;63583;49.976;20.182;2023-05-10T09:47:42;17.07;41.88
75022;SHT31;63583;49.976;20.182;2023-05-10T09:50:08;17.18;43.76
75022;SHT31;63583;49.976;20.182;2023-05-10T09:52:54;17.11;43.95
75022;SHT31;63583;49.976;20.182;2023-05-10T09:55:22;17.15;45.74
75022;SHT31;63583;49.976;20.182;2023-05-10T09:57:48;17.34;42.50
75022;SHT31;63583;49.976;20.182;2023-05-10T10:00:19;17.12;42.49
75022;SHT31;63583;49.976;20.182;2023-05-10T10:02:46;16.97;40.90
75022;SHT31;63583;49.976;20.182;2023-05-10T10:05:12;16.77;40.12
75022;SHT31;63583;49.976;20.182;2023-05-10T10:07:38;16.95;42.97
75022;SHT31;63583;49.976;20.182;2023-05-10T10:10:04;17.32;44.18
75022;SHT31;63583;49.976;20.182;2023-05-10T10:12:30;17.61;41.87
75022;SHT31;63583;49.976;20.182;2023-05-10T10:14:56;17.53;41.69
75022;SHT31;63583;49.976;20.182;2023-05-10T10:17:25;17.69;43.42
75022;SHT31;63583;49.976;20.182;2023-05-10T10:19:53;18.04;43.77
75022;SHT31;63583;49.976;20.182;2023-05-10T10:22:20;17.79;40.76
75022;SHT31;63583;49.976;20.182;2023-05-10T10:24:45;17.24;41.63
75022;SHT31;63583;49.976;20.182;2023-05-10T10:27:42;17.69;45.88
75022;SHT31;63583;49.976;20.182;2023-05-10T10:30:43;17.73;44.25
75022;SHT31;63583;49.976;20.182;2023-05-10T10:35:55;18.04;40.61
75022;SHT31;63583;49.976;20.182;2023-05-10T10:38:23;17.90;42.88
75022;SHT31;63583;49.976;20.182;2023-05-10T10:41:01;17.96;44.74
75022;SHT31;63583;49.976;20.182;2023-05-10T10:43:28;17.63;42.94
75022;SHT31;63583;49.976;20.182;2023-05-10T10:46:14;17.36;43.64
75022;SHT31;63583;49.976;20.182;2023-05-10T10:49:09;17.49;44.34
75022;SHT31;63583;49.976;20.182;2023-05-10T10:51:38;17.79;42.26
75022;SHT31;63583;49.976;20.182;2023-05-10T10:54:11;17.45;41.12
75022;SHT31;63583;49.976;20.182;2023-05-10T10:56:37;17.86;44.05
75022;SHT31;63583;49.976;20.182;2023-05-10T10:59:02;17.63;41.30
75022;SHT31;63583;49.976;20.182;2023-05-10T11:01:34;17.61;42.70
75022;SHT31;63583;49.976;20.182;2023-05-10T11:06:32;17.72;42.06
75022;SHT31;63583;49.976;20.182;2023-05-10T11:08:59;17.87;43.29
75022;SHT31;63583;49.976;20.182;2023-05-10T11:11:25;17.73;42.91
75022;SHT31;63583;49.976;20.182;2023-05-10T11:13:50;17.68;39.29
75022;SHT31;63583;49.976;20.182;2023-05-10T11:16:24;17.76;42.68
75022;SHT31;63583;49.976;20.182;2023-05-10T11:18:53;17.50;40.94
75022;SHT31;63583;49.976;20.182;2023-05-10T11:21:19;17.56;41.47
75022;SHT31;63583;49.976;20.182;2023-05-10T11:26:11;17.90;42.55
75022;SHT31;63583;49.976;20.182;2023-05-10T11:28:47;17.49;41.99
75022;SHT31;63583;49.976;20.182;2023-05-10T11:31:15;17.42;40.53
75022;SHT31;63583;49.976;20.182;2023-05-10T11:33:49;17.56;41.61
75022;SHT31;63583;49.976;20.182;2023-05-10T11:36:18;17.62;41.41
75022;SHT31;63583;49.976;20.182;2023-05-10T11:38:44;17.73;41.71
75022;SHT31;63583;49.976;20.182;2023-05-10T11:41:11;17.80;42.29
75022;SHT31;63583;49.976;20.182;2023-05-10T11:43:40;17.93;41.23
75022;SHT31;63583;49.976;20.182;2023-05-10T11:46:11;17.66;41.08
75022;SHT31;63583;49.976;20.182;2023-05-10T11:48:40;17.36;40.82
75022;SHT31;63583;49.976;20.182;2023-05-10T11:51:10;17.17;41.49
75022;SHT31;63583;49.976;20.182;2023-05-10T11:53:36;17.52;42.89
75022;SHT31;63583;49.976;20.182;2023-05-10T11:56:09;17.62;41.74
75022;SHT31;63583;49.976;20.182;2023-05-10T11:58:36;17.79;43.90
75022;SHT31;63583;49.976;20.182;2023-05-10T12:01:03;17.96;40.66
75022;SHT31;63583;49.976;20.182;2023-05-10T12:03:30;18.08;42.63
75022;SHT31;63583;49.976;20.182;2023-05-10T12:05:56;18.21;42.04
75022;SHT31;63583;49.976;20.182;2023-05-10T12:08:24;17.91;39.04
75022;SHT31;63583;49.976;20.182;2023-05-10T12:10:50;18.13;41.91
75022;SHT31;63583;49.976;20.182;2023-05-10T12:13:16;18.40;41.34
75022;SHT31;63583;49.976;20.182;2023-05-10T12:15:43;18.11;42.99
75022;SHT31;63583;49.976;20.182;2023-05-10T12:18:09;17.91;39.62
75022;SHT31;63583;49.976;20.182;2023-05-10T12:20:36;18.14;41.07
75022;SHT31;63583;49.976;20.182;2023-05-10T12:23:02;17.94;40.90
75022;SHT31;63583;49.976;20.182;2023-05-10T12:25:37;17.70;40.01
75022;SHT31;63583;49.976;20.182;2023-05-10T12:28:04;17.72;40.72
75022;SHT31;63583;49.976;20.182;2023-05-10T12:30:32;17.73;43.35
75022;SHT31;63583;49.976;20.182;2023-05-10T12:33:02;18.06;40.82
75022;SHT31;63583;49.976;20.182;2023-05-10T12:35:32;18.38;39.14
75022;SHT31;63583;49.976;20.182;2023-05-10T12:37:58;17.96;40.54
75022;SHT31;63583;49.976;20.182;2023-05-10T12:40:24;18.23;40.17
75022;SHT31;63583;49.976;20.182;2023-05-10T12:42:50;18.30;39.88
75022;SHT31;63583;49.976;20.182;2023-05-10T12:45:17;18.28;42.10
75022;SHT31;63583;49.976;20.182;2023-05-10T12:47:43;18.03;38.67
75022;SHT31;63583;49.976;20.182;2023-05-10T12:50:09;17.86;41.52
75022;SHT31;63583;49.976;20.182;2023-05-10T12:52:35;18.07;43.47
75022;SHT31;63583;49.976;20.182;2023-05-10T12:55:01;18.21;42.35
75022;SHT31;63583;49.976;20.182;2023-05-10T12:57:28;18.27;39.24
75022;SHT31;63583;49.976;20.182;2023-05-10T12:59:54;17.98;40.13
75022;SHT31;63583;49.976;20.182;2023-05-10T13:02:20;18.08;42.52
75022;SHT31;63583;49.976;20.182;2023-05-10T13:04:47;17.89;40.17
75022;SHT31;63583;49.976;20.182;2023-05-10T13:07:13;18.30;41.95
75022;SHT31;63583;49.976;20.182;2023-05-10T13:09:39;18.04;41.32
75022;SHT31;63583;49.976;20.182;2023-05-10T13:12:05;17.98;40.31
75022;SHT31;63583;49.976;20.182;2023-05-10T13:14:31;18.06;41.41
75022;SHT31;63583;49.976;20.182;2023-05-10T13:16:56;18.21;41.77
75022;SHT31;63583;49.976;20.182;2023-05-10T13:19:22;18.01;39.11
75022;SHT31;63583;49.976;20.182;2023-05-10T13:21:48;17.94;40.07
75022;SHT31;63583;49.976;20.182;2023-05-10T13:24:14;17.89;40.37
75022;SHT31;63583;49.976;20.182;2023-05-10T13:26:40;17.98;41.30
75022;SHT31;63583;49.976;20.182;2023-05-10T13:29:06;17.98;40.98
75022;SHT31;63583;49.976;20.182;2023-05-10T13:31:33;17.73;40.72
75022;SHT31;63583;49.976;20.182;2023-05-10T13:34:00;17.94;42.99
75022;SHT31;63583;49.976;20.182;2023-05-10T13:36:25;17.89;40.60
75022;SHT31;63583;49.976;20.182;2023-05-10T13:38:51;18.14;41.74
75022;SHT31;63583;49.976;20.182;2023-05-10T13:41:17;17.98;42.71
75022;SHT31;63583;49.976;20.182;2023-05-10T13:43:43;17.83;40.88
75022;SHT31;63583;49.976;20.182;2023-05-10T13:46:09;18.00;42.27
75022;SHT31;63583;49.976;20.182;2023-05-10T13:48:34;18.04;41.91
75022;SHT31;63583;49.976;20.182;2023-05-10T13:51:02;18.15;42.05
75022;SHT31;63583;49.976;20.182;2023-05-10T13:53:27;18.06;40.16
75022;SHT31;63583;49.976;20.182;2023-05-10T13:55:53;18.27;41.03
75022;SHT31;63583;49.976;20.182;2023-05-10T13:58:19;18.20;39.91
75022;SHT31;63583;49.976;20.182;2023-05-10T14:00:44;17.89;40.83
75022;SHT31;63583;49.976;20.182;2023-05-10T14:03:10;18.13;40.90
75022;SHT31;63583;49.976;20.182;2023-05-10T14:05:36;17.94;40.78
75022;SHT31;63583;49.976;20.182;2023-05-10T14:08:02;17.89;40.85
75022;SHT31;63583;49.976;20.182;2023-05-10T14:10:27;17.87;39.29
75022;SHT31;63583;49.976;20.182;2023-05-10T14:12:53;17.83;41.86
75022;SHT31;63583;49.976;20.182;2023-05-10T14:15:19;17.94;42.16
75022;SHT31;63583;49.976;20.182;2023-05-10T14:17:44;18.06;41.74
75022;SHT31;63583;49.976;20.182;2023-05-10T14:20:10;18.01;39.55
75022;SHT31;63583;49.976;20.182;2023-05-10T14:22:36;18.04;40.73
75022;SHT31;63583;49.976;20.182;2023-05-10T14:25:02;17.94;41.98
75022;SHT31;63583;49.976;20.182;2023-05-10T14:27:28;18.15;41.82
75022;SHT31;63583;49.976;20.182;2023-05-10T14:29:54;18.00;39.21
75022;SHT31;63583;49.976;20.182;2023-05-10T14:32:19;18.13;40.44
75022;SHT31;63583;49.976;20.182;2023-05-10T14:34:45;17.93;40.45
75022;SHT31;63583;49.976;20.182;2023-05-10T14:37:11;17.93;40.77
75022;SHT31;63583;49.976;20.182;2023-05-10T14:39:37;17.96;41.79
75022;SHT31;63583;49.976;20.182;2023-05-10T14:42:03;18.03;41.43
75022;SHT31;63583;49.976;20.182;2023-05-10T14:44:29;17.97;41.18
75022;SHT31;63583;49.976;20.182;2023-05-10T14:46:55;17.98;40.79
75022;SHT31;63583;49.976;20.182;2023-05-10T14:49:21;17.93;40.89
75022;SHT31;63583;49.976;20.182;2023-05-10T14:51:48;17.98;41.14
75022;SHT31;63583;49.976;20.182;2023-05-10T14:54:14;17.93;42.93
75022;SHT31;63583;49.976;20.182;2023-05-10T14:56:40;18.15;43.40
75022;SHT31;63583;49.976;20.182;2023-05-10T14:59:07;18.34;40.83
75022;SHT31;63583;49.976;20.182;2023-05-10T15:01:33;17.90;39.50
75022;SHT31;63583;49.976;20.182;2023-05-10T15:04:03;17.91;43.10
75022;SHT31;63583;49.976;20.182;2023-05-10T15:06:33;17.93;43.40
75022;SHT31;63583;49.976;20.182;2023-05-10T15:08:59;17.82;42.28
75022;SHT31;63583;49.976;20.182;2023-05-10T15:11:25;17.89;41.54
75022;SHT31;63583;49.976;20.182;2023-05-10T15:13:51;17.85;41.25
75022;SHT31;63583;49.976;20.182;2023-05-10T15:16:17;17.87;42.52
75022;SHT31;63583;49.976;20.182;2023-05-10T15:18:42;17.80;41.98
75022;SHT31;63583;49.976;20.182;2023-05-10T15:21:09;17.89;42.08
75022;SHT31;63583;49.976;20.182;2023-05-10T15:23:34;17.86;40.89
75022;SHT31;63583;49.976;20.182;2023-05-10T15:26:00;17.83;42.42
75022;SHT31;63583;49.976;20.182;2023-05-10T15:28:26;17.79;42.15
75022;SHT31;63583;49.976;20.182;2023-05-10T15:30:51;17.85;42.93
75022;SHT31;63583;49.976;20.182;2023-05-10T15:33:17;17.86;41.60
75022;SHT31;63583;49.976;20.182;2023-05-10T15:35:43;17.77;40.82
75022;SHT31;63583;49.976;20.182;2023-05-10T15:38:09;17.73;40.73
75022;SHT31;63583;49.976;20.182;2023-05-10T15:40:35;17.65;41.41
75022;SHT31;63583;49.976;20.182;2023-05-10T15:43:01;17.73;43.27
75022;SHT31;63583;49.976;20.182;2023-05-10T15:45:27;17.56;44.11